Terminal Aerodrome Forecast
Issued by NWS

Home | Current Version | Previous Version | Text Only | Print | Product List | Glossary On
Versions: 1 2 3 4 5 6 7 8 9 10 11 12 13 14 15 16 17 18 19 20 21 22 23 24 25 26 27 28 29
000
FTUS43 KLSX 011736
TAFCPS
TAF
KCPS 011736Z 0118/0218 20010KT P6SM SCT022 SCT050 OVC100
     FM012100 18008KT P6SM VCSH BKN060
      TEMPO 0123/0202 5SM -TSRA OVC045CB
     FM020200 17009KT 4SM SHRA VCTS OVC025CB
     FM020500 12005KT 4SM BR OVC030
     FM020900 06005KT 4SM BR VCSH OVC010=

USA.gov is the U.S. government's official web portal to all federal, state and local government web resources and services.